createdAt,value
2023-02-15T00:01:37.301Z,18.75
2023-02-15T00:04:05.982Z,18.75
2023-02-15T00:06:34.931Z,18.30
2023-02-15T00:09:02.462Z,22.77
2023-02-15T00:11:44.680Z,26.25
2023-02-15T00:14:21.307Z,21.83
2023-02-15T00:16:54.296Z,21.20
2023-02-15T00:19:22.743Z,24.67
2023-02-15T00:21:51.752Z,20.38
2023-02-15T00:24:20.571Z,21.02
2023-02-15T00:27:00.487Z,25.17
2023-02-15T00:29:30.541Z,23.75
2023-02-15T00:32:00.920Z,20.17
2023-02-15T00:34:31.288Z,24.55
2023-02-15T00:37:01.125Z,22.83
2023-02-15T00:39:31.180Z,24.70
2023-02-15T00:42:02.819Z,22.80
2023-02-15T00:44:32.948Z,21.58
2023-02-15T00:47:00.515Z,27.95
2023-02-15T00:49:30.669Z,24.92
2023-02-15T00:52:00.426Z,27.65
2023-02-15T00:54:30.693Z,26.67
2023-02-15T00:57:03.547Z,27.08
2023-02-15T00:59:36.775Z,28.25
2023-02-15T01:02:04.280Z,24.73
2023-02-15T01:04:37.592Z,26.55
2023-02-15T01:07:05.188Z,26.05
2023-02-15T01:09:34.258Z,26.30
2023-02-15T01:12:01.806Z,25.33
2023-02-15T01:14:32.240Z,22.20
2023-02-15T01:16:59.797Z,24.90
2023-02-15T01:19:35.346Z,23.50
2023-02-15T01:22:07.881Z,24.52
2023-02-15T01:24:38.760Z,22.55
2023-02-15T01:27:14.565Z,25.58
2023-02-15T01:29:44.755Z,23.60
2023-02-15T01:32:19.639Z,24.80
2023-02-15T01:34:51.072Z,25.42
2023-02-15T01:37:21.320Z,24.00
2023-02-15T01:42:28.576Z,22.83
2023-02-15T01:44:57.531Z,22.88
2023-02-15T01:47:41.688Z,21.33
2023-02-15T01:50:09.846Z,25.33
2023-02-15T01:52:40.363Z,27.38
2023-02-15T01:55:11.312Z,24.27
2023-02-15T01:57:39.430Z,25.02
2023-02-15T02:00:10.141Z,31.25
2023-02-15T02:02:42.648Z,24.08
2023-02-15T02:05:10.468Z,27.23
2023-02-15T02:07:45.108Z,23.52
2023-02-15T02:10:16.860Z,29.35
2023-02-15T02:12:48.585Z,24.27
2023-02-15T02:15:25.102Z,27.77
2023-02-15T02:18:06.698Z,23.13
2023-02-15T02:21:17.145Z,29.05
2023-02-15T02:24:15.011Z,28.63
2023-02-15T02:27:13.624Z,23.90
2023-02-15T02:30:18.981Z,26.88
2023-02-15T02:33:14.310Z,29.23
2023-02-15T02:36:06.353Z,27.73
2023-02-15T02:38:36.692Z,23.13
2023-02-15T02:41:39.511Z,24.77
2023-02-15T02:44:15.014Z,22.27
2023-02-15T02:46:57.766Z,24.80
2023-02-15T02:49:41.153Z,23.40
2023-02-15T02:52:36.155Z,24.00
2023-02-15T02:55:27.441Z,23.55
2023-02-15T02:58:15.609Z,21.20
2023-02-15T03:00:58.422Z,24.65
2023-02-15T03:03:42.328Z,21.15
2023-02-15T03:06:19.174Z,21.55
2023-02-15T03:08:54.761Z,21.30
2023-02-15T03:11:22.182Z,20.98
2023-02-15T03:13:51.752Z,20.13
2023-02-15T03:16:27.397Z,17.65
2023-02-15T03:19:05.515Z,23.80
2023-02-15T03:21:50.634Z,21.83
2023-02-15T03:24:26.698Z,23.98
2023-02-15T03:26:54.952Z,19.42
2023-02-15T03:29:26.884Z,21.00
2023-02-15T03:31:59.752Z,26.30
2023-02-15T03:34:27.509Z,23.52
2023-02-15T03:36:55.137Z,21.35
2023-02-15T03:39:38.613Z,25.63
2023-02-15T03:42:17.605Z,24.40
2023-02-15T03:44:59.816Z,22.95
2023-02-15T03:47:33.400Z,24.88
2023-02-15T03:50:28.795Z,23.85
2023-02-15T03:53:01.241Z,21.70
2023-02-15T03:55:29.259Z,22.88
2023-02-15T04:03:56.020Z,22.75
2023-02-15T04:06:25.714Z,27.02
2023-02-15T04:09:14.782Z,19.70
2023-02-15T04:11:44.865Z,21.67
2023-02-15T04:14:30.766Z,21.92
2023-02-15T04:17:01.280Z,21.85
2023-02-15T04:19:57.591Z,24.77
2023-02-15T04:22:45.382Z,24.75
2023-02-15T04:25:13.665Z,25.70
2023-02-15T04:27:48.935Z,23.80
2023-02-15T04:30:18.633Z,23.45
2023-02-15T04:32:46.259Z,22.65
2023-02-15T04:35:14.099Z,24.90
2023-02-15T04:37:43.195Z,21.98
2023-02-15T04:40:13.328Z,19.83
2023-02-15T04:42:43.528Z,22.88
2023-02-15T04:47:41.396Z,21.03
2023-02-15T04:50:17.819Z,23.48
2023-02-15T04:52:59.897Z,21.45
2023-02-15T04:55:49.232Z,19.50
2023-02-15T04:59:42.396Z,20.60
2023-02-15T05:05:24.258Z,20.65
2023-02-15T05:08:27.140Z,21.00
2023-02-15T05:15:18.238Z,19.38
2023-02-15T05:21:08.542Z,22.25
2023-02-15T05:24:17.419Z,19.90
2023-02-15T05:30:33.770Z,18.92
2023-02-15T05:33:01.141Z,21.60
2023-02-15T05:35:28.104Z,21.42
2023-02-15T05:37:55.411Z,19.08
2023-02-15T05:40:22.642Z,20.20
2023-02-15T05:42:49.928Z,25.50
2023-02-15T05:45:16.766Z,18.40
2023-02-15T05:47:45.106Z,17.42
2023-02-15T05:50:12.356Z,17.50
2023-02-15T05:52:40.535Z,17.08
2023-02-15T05:55:09.708Z,18.33
2023-02-15T05:57:37.253Z,18.75
2023-02-15T06:00:06.102Z,17.27
2023-02-15T06:02:39.845Z,17.30
2023-02-15T06:05:07.826Z,17.95
2023-02-15T06:07:34.694Z,21.10
2023-02-15T06:10:01.564Z,18.40
2023-02-15T06:12:28.451Z,18.10
2023-02-15T06:14:55.727Z,17.77
2023-02-15T06:17:22.831Z,18.80
2023-02-15T06:19:50.087Z,20.70
2023-02-15T06:22:17.007Z,18.05
2023-02-15T06:24:43.815Z,21.20
2023-02-15T06:27:11.280Z,17.05
2023-02-15T06:29:38.113Z,19.77
2023-02-15T06:32:05.509Z,17.20
2023-02-15T06:34:32.880Z,20.63
2023-02-15T06:36:59.997Z,17.90
2023-02-15T06:39:26.868Z,17.50
2023-02-15T06:41:53.752Z,19.95
2023-02-15T06:44:20.663Z,21.05
2023-02-15T06:46:47.519Z,21.00
2023-02-15T06:49:14.481Z,20.00
2023-02-15T06:51:41.397Z,23.65
2023-02-15T06:54:08.824Z,19.10
2023-02-15T06:56:35.667Z,18.65
2023-02-15T06:59:02.558Z,18.38
2023-02-15T07:01:29.846Z,14.48
2023-02-15T07:03:57.142Z,18.08
2023-02-15T07:06:24.408Z,15.60
2023-02-15T07:08:51.270Z,17.35
2023-02-15T07:11:36.465Z,18.25
2023-02-15T07:14:03.424Z,17.45
2023-02-15T07:16:30.472Z,18.75
2023-02-15T07:18:57.788Z,18.00
2023-02-15T07:21:24.646Z,18.27
2023-02-15T07:23:51.463Z,19.88
2023-02-15T07:26:18.290Z,17.95
2023-02-15T07:28:45.317Z,19.95
2023-02-15T07:31:12.251Z,19.73
2023-02-15T07:33:39.093Z,18.38
2023-02-15T07:36:06.479Z,18.52
2023-02-15T07:38:35.820Z,17.75
2023-02-15T07:41:05.342Z,20.07
2023-02-15T07:43:34.860Z,16.30
2023-02-15T07:46:03.304Z,19.23
2023-02-15T07:48:30.399Z,21.13
2023-02-15T07:51:06.198Z,19.48
2023-02-15T07:53:33.927Z,21.73
2023-02-15T07:56:02.564Z,20.75
2023-02-15T07:58:48.569Z,18.92
2023-02-15T08:01:16.103Z,18.73
2023-02-15T08:03:43.423Z,20.73
2023-02-15T08:06:12.437Z,18.50
2023-02-15T08:08:39.812Z,21.58
2023-02-15T08:11:26.301Z,18.88
2023-02-15T08:13:54.796Z,19.30
2023-02-15T08:16:25.746Z,19.77
2023-02-15T08:18:53.893Z,20.25
2023-02-15T08:21:21.551Z,23.25
2023-02-15T08:23:49.769Z,17.80
2023-02-15T08:26:17.834Z,18.60
2023-02-15T08:28:45.305Z,22.67
2023-02-15T08:31:14.325Z,17.88
2023-02-15T08:33:43.121Z,19.73
2023-02-15T08:36:15.216Z,18.50
2023-02-15T08:38:43.143Z,17.75
2023-02-15T08:41:22.165Z,21.48
2023-02-15T08:43:52.956Z,17.70
2023-02-15T08:46:20.550Z,18.83
2023-02-15T08:48:47.840Z,16.40
2023-02-15T08:51:20.551Z,16.58
2023-02-15T08:53:52.707Z,17.52
2023-02-15T08:56:21.975Z,20.58
2023-02-15T08:58:48.921Z,19.17
2023-02-15T09:01:19.131Z,19.13
2023-02-15T09:06:14.685Z,18.77
2023-02-15T09:08:41.560Z,16.23
2023-02-15T09:11:08.813Z,15.00
2023-02-15T09:13:35.997Z,17.73
2023-02-15T09:16:05.422Z,17.98
2023-02-15T09:18:36.360Z,24.73
2023-02-15T09:21:08.801Z,15.85
2023-02-15T09:23:36.238Z,17.50
2023-02-15T09:26:05.515Z,15.98
2023-02-15T09:28:33.717Z,14.40
2023-02-15T09:31:16.088Z,17.95
2023-02-15T09:33:44.715Z,14.15
2023-02-15T09:36:26.500Z,18.98
2023-02-15T09:39:20.320Z,17.30
2023-02-15T09:42:10.685Z,13.27
2023-02-15T09:45:11.075Z,15.85
2023-02-15T09:50:58.653Z,14.80
2023-02-15T09:54:15.090Z,16.50
2023-02-15T09:56:57.285Z,13.18
2023-02-15T09:59:37.786Z,12.70
2023-02-15T10:02:17.237Z,14.05
2023-02-15T10:05:05.373Z,17.10
2023-02-15T10:07:43.895Z,14.50
2023-02-15T10:10:34.647Z,17.27
2023-02-15T10:13:10.559Z,15.35
2023-02-15T10:15:43.944Z,15.40
2023-02-15T10:18:45.122Z,14.40
2023-02-15T10:21:30.456Z,14.77
2023-02-15T10:24:24.989Z,15.55
2023-02-15T10:26:52.426Z,14.55
2023-02-15T10:29:25.721Z,15.80
2023-02-15T10:32:18.423Z,16.60
2023-02-15T10:34:52.672Z,18.48
2023-02-15T10:37:38.194Z,16.33
2023-02-15T10:40:11.964Z,17.60
2023-02-15T10:43:12.483Z,17.35
2023-02-15T10:46:08.089Z,14.25
2023-02-15T10:48:52.507Z,16.70
2023-02-15T10:52:00.499Z,26.30
2023-02-15T10:55:01.812Z,15.90
2023-02-15T10:57:44.445Z,18.60
2023-02-15T11:01:07.477Z,20.55
2023-02-15T11:03:43.651Z,20.15
2023-02-15T11:06:14.278Z,18.60
2023-02-15T11:08:46.327Z,17.58
2023-02-15T11:11:23.277Z,20.00
2023-02-15T11:13:56.138Z,16.27
2023-02-15T11:16:32.533Z,17.77
2023-02-15T11:19:06.828Z,18.58
2023-02-15T11:21:46.942Z,16.20
2023-02-15T11:24:27.053Z,18.17
2023-02-15T11:27:09.627Z,18.63
2023-02-15T11:30:14.590Z,17.23
2023-02-15T11:33:02.630Z,17.35
2023-02-15T11:36:10.044Z,15.27
2023-02-15T11:38:44.590Z,17.80
2023-02-15T11:41:37.272Z,16.92
2023-02-15T11:44:52.836Z,16.52
2023-02-15T11:47:43.909Z,18.33
2023-02-15T11:50:51.212Z,19.13
2023-02-15T11:53:25.905Z,13.75
2023-02-15T11:55:53.859Z,16.05
2023-02-15T11:59:04.722Z,17.60
2023-02-15T12:01:44.575Z,16.23
2023-02-15T12:04:41.710Z,19.15
2023-02-15T12:07:13.421Z,20.77
2023-02-15T12:10:15.288Z,18.77
2023-02-15T12:12:43.027Z,17.00
2023-02-15T12:15:15.494Z,18.08
2023-02-15T12:17:54.431Z,17.60
2023-02-15T12:20:21.847Z,15.93
2023-02-15T12:23:05.656Z,19.15
2023-02-15T12:25:52.973Z,19.08
2023-02-15T12:28:48.175Z,18.08
2023-02-15T12:31:41.631Z,18.10
2023-02-15T12:34:36.209Z,18.33
2023-02-15T12:37:23.991Z,20.27
2023-02-15T12:40:06.238Z,16.08
2023-02-15T12:43:01.860Z,17.17
2023-02-15T12:45:37.907Z,20.40
2023-02-15T12:48:24.009Z,16.40
2023-02-15T12:51:08.127Z,16.73
2023-02-15T12:53:46.756Z,18.00
2023-02-15T13:03:44.687Z,19.10
2023-02-15T13:06:54.678Z,18.52
2023-02-15T13:12:40.318Z,17.98
2023-02-15T13:15:57.390Z,15.85
2023-02-15T13:22:06.354Z,17.17
2023-02-15T13:25:14.697Z,17.15
2023-02-15T13:27:59.362Z,16.55
2023-02-15T13:30:38.532Z,16.00
2023-02-15T13:33:48.216Z,15.45
2023-02-15T13:36:33.357Z,14.48
2023-02-15T13:39:55.612Z,15.25
2023-02-15T13:42:25.422Z,17.50
2023-02-15T13:45:45.674Z,19.60
2023-02-15T13:48:45.637Z,14.73
2023-02-15T13:51:51.067Z,20.50
2023-02-15T13:54:38.174Z,18.38
2023-02-15T13:57:39.965Z,17.73
2023-02-15T14:00:37.755Z,14.32
2023-02-15T14:03:47.095Z,19.40
2023-02-15T14:06:53.079Z,15.38
2023-02-15T14:09:39.978Z,14.45
2023-02-15T14:12:10.567Z,16.10
2023-02-15T14:15:12.348Z,15.20
2023-02-15T14:18:14.970Z,15.90
2023-02-15T14:24:12.116Z,16.33
2023-02-15T14:27:24.405Z,17.40
2023-02-15T14:29:57.050Z,14.52
2023-02-15T14:32:50.893Z,15.98
2023-02-15T14:35:25.220Z,14.02
2023-02-15T14:38:13.302Z,13.40
2023-02-15T14:41:18.585Z,14.45
2023-02-15T14:43:51.852Z,13.77
2023-02-15T14:46:46.338Z,12.55
2023-02-15T14:49:24.192Z,17.55
2023-02-15T14:51:51.546Z,15.55
2023-02-15T14:54:18.781Z,13.13
2023-02-15T14:56:46.974Z,13.68
2023-02-15T14:59:22.353Z,14.85
2023-02-15T15:02:23.947Z,14.43
2023-02-15T15:04:57.400Z,14.35
2023-02-15T15:07:46.626Z,19.05
2023-02-15T15:10:20.847Z,15.10
2023-02-15T15:12:51.701Z,20.67
2023-02-15T15:15:27.686Z,14.25
2023-02-15T15:18:08.616Z,18.08
2023-02-15T15:20:52.637Z,14.52
2023-02-15T15:23:19.975Z,16.75
2023-02-15T15:26:00.809Z,15.50
2023-02-15T15:28:35.531Z,16.35
2023-02-15T15:31:17.540Z,16.10
2023-02-15T15:34:06.435Z,13.73
2023-02-15T15:37:37.745Z,13.70
2023-02-15T15:40:52.980Z,15.82
2023-02-15T15:43:38.324Z,16.50
2023-02-15T15:46:14.764Z,13.52
2023-02-15T15:48:43.213Z,19.67
2023-02-15T15:51:21.516Z,13.85
2023-02-15T15:53:54.168Z,16.95
2023-02-15T15:56:25.788Z,14.30
2023-02-15T15:59:00.423Z,16.25
2023-02-15T16:01:29.878Z,15.95
2023-02-15T16:03:59.012Z,17.10
2023-02-15T16:06:30.683Z,16.27
2023-02-15T16:08:58.293Z,18.73
2023-02-15T16:11:31.001Z,17.88
2023-02-15T16:13:58.281Z,17.48
2023-02-15T16:16:29.382Z,17.17
2023-02-15T16:19:00.586Z,17.85
2023-02-15T16:21:35.454Z,22.77
2023-02-15T16:24:25.657Z,18.40
2023-02-15T16:26:52.891Z,14.27
2023-02-15T16:29:30.782Z,16.35
2023-02-15T16:32:21.549Z,22.27
2023-02-15T16:34:56.799Z,16.77
2023-02-15T16:37:32.442Z,17.42
2023-02-15T16:39:59.835Z,20.88
2023-02-15T16:42:27.299Z,20.58
2023-02-15T16:45:06.906Z,19.65
2023-02-15T16:47:39.884Z,19.13
2023-02-15T16:50:07.597Z,21.67
2023-02-15T16:52:35.542Z,21.52
2023-02-15T16:55:06.348Z,23.80
2023-02-15T16:57:39.100Z,24.58
2023-02-15T17:00:19.359Z,26.30
2023-02-15T17:03:15.709Z,22.95
2023-02-15T17:05:42.998Z,26.77
2023-02-15T17:08:24.383Z,22.98
2023-02-15T17:11:01.025Z,24.70
2023-02-15T17:13:29.732Z,22.92
2023-02-15T17:16:00.619Z,27.27
2023-02-15T17:18:31.643Z,18.73
2023-02-15T17:21:02.806Z,25.48
2023-02-15T17:23:49.473Z,32.00
2023-02-15T17:26:20.041Z,36.45
2023-02-15T17:28:51.360Z,33.45
2023-02-15T17:31:20.305Z,31.38
2023-02-15T17:33:48.481Z,31.30
2023-02-15T17:36:23.327Z,30.80
2023-02-15T17:38:59.511Z,29.35
2023-02-15T17:41:28.573Z,28.05
2023-02-15T17:43:55.960Z,27.98
2023-02-15T17:46:23.686Z,28.48
2023-02-15T17:48:56.186Z,28.38
2023-02-15T17:51:23.874Z,34.22
2023-02-15T17:54:10.029Z,40.30
2023-02-15T17:56:38.575Z,55.03
2023-02-15T17:59:07.715Z,54.20
2023-02-15T18:01:55.339Z,55.60
2023-02-15T18:04:41.454Z,46.03
2023-02-15T18:07:31.774Z,45.30
2023-02-15T18:12:44.663Z,36.53
2023-02-15T18:15:13.124Z,31.00
2023-02-15T18:17:44.614Z,31.80
2023-02-15T18:20:24.465Z,28.23
2023-02-15T18:22:52.290Z,27.85
2023-02-15T18:25:22.663Z,27.23
2023-02-15T18:30:19.400Z,26.20
2023-02-15T18:32:48.224Z,25.42
2023-02-15T18:35:17.603Z,24.40
2023-02-15T18:37:48.214Z,25.20
2023-02-15T18:40:20.768Z,29.40
2023-02-15T18:42:49.493Z,26.58
2023-02-15T18:45:18.932Z,27.48
2023-02-15T18:47:49.045Z,31.13
2023-02-15T18:50:18.478Z,28.45
2023-02-15T18:52:47.663Z,27.85
2023-02-15T18:55:21.920Z,32.00
2023-02-15T18:57:50.943Z,28.13
2023-02-15T19:00:25.267Z,25.88
2023-02-15T19:02:54.036Z,33.55
2023-02-15T19:05:22.585Z,30.85
2023-02-15T19:07:50.982Z,30.95
2023-02-15T19:10:21.181Z,32.17
2023-02-15T19:12:49.347Z,37.22
2023-02-15T19:15:19.989Z,36.10
2023-02-15T19:17:47.296Z,41.63
2023-02-15T19:20:20.795Z,43.50
2023-02-15T19:22:49.642Z,43.30
2023-02-15T19:25:24.154Z,40.72
2023-02-15T19:27:52.430Z,40.13
2023-02-15T19:30:32.639Z,37.17
2023-02-15T19:33:02.733Z,37.22
2023-02-15T19:35:34.201Z,37.03
2023-02-15T19:38:07.624Z,38.67
2023-02-15T19:40:35.813Z,34.05
2023-02-15T19:43:04.433Z,31.63
2023-02-15T19:45:35.168Z,33.58
2023-02-15T19:48:02.722Z,33.83
2023-02-15T19:50:31.355Z,32.97
2023-02-15T19:52:58.866Z,33.90
2023-02-15T19:55:34.471Z,40.70
2023-02-15T19:58:11.947Z,34.95
2023-02-15T20:00:41.080Z,32.65
2023-02-15T20:03:09.430Z,35.28
2023-02-15T20:05:44.858Z,34.75
2023-02-15T20:08:21.490Z,35.47
2023-02-15T20:11:07.307Z,33.83
2023-02-15T20:13:34.953Z,36.97
2023-02-15T20:16:05.804Z,34.75
2023-02-15T20:18:36.082Z,36.42
2023-02-15T20:21:04.787Z,35.30
2023-02-15T20:23:37.344Z,32.97
2023-02-15T20:26:18.921Z,32.92
2023-02-15T20:28:49.254Z,24.95
2023-02-15T20:33:46.438Z,31.30
2023-02-15T20:36:16.257Z,33.17
2023-02-15T20:38:47.348Z,31.05
2023-02-15T20:41:37.184Z,31.70
2023-02-15T20:44:26.482Z,27.35
2023-02-15T20:46:56.470Z,31.92
2023-02-15T20:49:25.475Z,36.38
2023-02-15T20:51:54.236Z,31.17
2023-02-15T20:54:27.086Z,28.33
2023-02-15T20:56:54.536Z,32.45
2023-02-15T20:59:28.237Z,36.13
2023-02-15T21:02:03.478Z,34.92
2023-02-15T21:04:32.671Z,37.13
2023-02-15T21:07:02.434Z,29.55
2023-02-15T21:09:32.634Z,32.70
2023-02-15T21:12:02.576Z,31.92
2023-02-15T21:14:32.370Z,33.53
2023-02-15T21:16:59.985Z,38.80
2023-02-15T21:19:28.661Z,40.72
2023-02-15T21:21:56.275Z,63.50
2023-02-15T21:24:30.080Z,49.85
2023-02-15T21:27:00.463Z,48.75
2023-02-15T21:29:29.180Z,43.05
2023-02-15T21:32:00.495Z,42.38
2023-02-15T21:34:27.875Z,46.38
2023-02-15T21:36:55.175Z,44.85
2023-02-15T21:39:25.382Z,44.95
2023-02-15T21:42:14.490Z,38.20
2023-02-15T21:45:05.293Z,40.95
2023-02-15T21:47:50.524Z,34.88
2023-02-15T21:50:43.548Z,39.60
2023-02-15T21:53:15.669Z,34.03
2023-02-15T21:55:43.004Z,30.33
2023-02-15T21:58:20.141Z,33.55
2023-02-15T22:00:47.865Z,29.85
2023-02-15T22:03:15.278Z,31.25
2023-02-15T22:05:42.708Z,29.55
2023-02-15T22:08:13.364Z,29.63
2023-02-15T22:10:41.078Z,31.17
2023-02-15T22:13:22.497Z,30.02
2023-02-15T22:15:49.862Z,26.52
2023-02-15T22:18:23.668Z,31.83
2023-02-15T22:20:51.235Z,34.25
2023-02-15T22:23:18.640Z,29.35
2023-02-15T22:25:54.910Z,28.38
2023-02-15T22:28:26.287Z,30.10
2023-02-15T22:30:53.593Z,26.92
2023-02-15T22:33:29.684Z,29.50
2023-02-15T22:35:57.218Z,25.92
2023-02-15T22:38:24.805Z,25.75
2023-02-15T22:40:53.775Z,26.58
2023-02-15T22:43:28.751Z,27.42
2023-02-15T22:46:00.831Z,29.05
2023-02-15T22:48:28.427Z,30.75
2023-02-15T22:50:55.891Z,27.17
2023-02-15T22:53:23.303Z,29.17
2023-02-15T22:55:50.750Z,31.90
2023-02-15T22:58:22.265Z,27.52
2023-02-15T23:00:49.548Z,28.92
2023-02-15T23:03:18.342Z,28.10
2023-02-15T23:05:46.435Z,29.58
2023-02-15T23:08:14.171Z,27.70
2023-02-15T23:10:43.348Z,30.00
2023-02-15T23:13:25.957Z,27.92
2023-02-15T23:15:58.254Z,30.95
2023-02-15T23:18:25.619Z,30.65
2023-02-15T23:20:53.137Z,26.67
2023-02-15T23:23:26.140Z,28.88
2023-02-15T23:25:53.657Z,28.65
2023-02-15T23:28:28.313Z,35.97
2023-02-15T23:30:55.731Z,27.52
2023-02-15T23:33:26.370Z,27.88
2023-02-15T23:35:53.656Z,28.42
2023-02-15T23:38:25.569Z,27.10
2023-02-15T23:41:16.489Z,28.58
2023-02-15T23:43:46.705Z,29.00
2023-02-15T23:46:40.916Z,30.90
2023-02-15T23:49:15.201Z,27.30
2023-02-15T23:51:53.923Z,29.27
2023-02-15T23:54:23.777Z,33.63
2023-02-15T23:56:54.037Z,32.08
2023-02-15T23:59:23.644Z,30.95
